Time;durP1;ratioP1;P1;durP2;ratioP2;P2;SDS_P1;SDS_P2;PMS_P1;PMS_P2;Temp;Humidity;BMP_temperature;BMP_pressure;BME280_temperature;BME280_humidity;BME280_pressure;Samples;Min_cycle;Max_cycle;Signal;HPM_P1;HPM_P2
2021/07/10 00:00:27;;;;;;;3.97;3.67;;;15.40;1.00;;;;;;5104170;27;20466;-78
2021/07/10 00:02:54;;;;;;;4.97;4.57;;;15.40;1.00;;;;;;5090806;27;21394;-77
2021/07/10 00:05:20;;;;;;;4.43;4.00;;;15.40;1.00;;;;;;5089775;27;20454;-77
2021/07/10 00:07:48;;;;;;;4.63;4.33;;;15.30;1.00;;;;;;5094436;27;20471;-77
2021/07/10 00:10:17;;;;;;;4.17;3.87;;;15.30;1.00;;;;;;5090422;27;21397;-77
2021/07/10 00:12:44;;;;;;;5.03;4.63;;;15.30;1.00;;;;;;5092378;27;20911;-77
2021/07/10 00:15:13;;;;;;;5.23;4.83;;;15.30;1.00;;;;;;5094656;27;21186;-77
2021/07/10 00:17:40;;;;;;;4.93;4.53;;;15.30;1.00;;;;;;5093638;27;20455;-78
2021/07/10 00:20:11;;;;;;;5.07;4.57;;;15.30;1.00;;;;;;5093638;27;20462;-78
2021/07/10 00:22:37;;;;;;;4.63;4.30;;;15.30;1.00;;;;;;5093474;27;20455;-78
2021/07/10 00:25:09;;;;;;;4.83;4.43;;;15.30;1.00;;;;;;5093029;27;20442;-77
2021/07/10 00:27:35;;;;;;;4.93;4.53;;;15.30;1.00;;;;;;5097320;27;20528;-78
2021/07/10 00:30:04;;;;;;;4.70;4.30;;;15.20;1.00;;;;;;5096004;27;21185;-78
2021/07/10 00:32:30;;;;;;;5.07;4.67;;;15.30;1.00;;;;;;5081569;27;20445;-78
2021/07/10 00:34:57;;;;;;;5.33;4.83;;;15.20;1.00;;;;;;5088980;27;20430;-77
2021/07/10 00:37:24;;;;;;;4.37;4.07;;;15.20;1.00;;;;;;5092813;27;20472;-77
2021/07/10 00:39:50;;;;;;;5.33;4.93;;;15.30;1.00;;;;;;5089581;27;20461;-77
2021/07/10 00:42:21;;;;;;;5.10;4.70;;;15.30;1.00;;;;;;5091649;27;21514;-77
2021/07/10 00:44:48;;;;;;;5.03;4.63;;;15.20;1.00;;;;;;5094451;27;20468;-77
2021/07/10 00:47:15;;;;;;;5.10;4.70;;;15.30;1.00;;;;;;5095721;27;20453;-79
2021/07/10 00:49:42;;;;;;;6.97;4.97;;;15.20;1.00;;;;;;5091861;27;20438;-78
2021/07/10 00:52:08;;;;;;;5.53;5.00;;;15.20;1.00;;;;;;5088162;27;20466;-77
2021/07/10 00:54:36;;;;;;;5.07;4.67;;;15.20;1.00;;;;;;5092323;27;20438;-76
2021/07/10 00:57:04;;;;;;;5.30;4.80;;;15.20;1.00;;;;;;5088874;27;20454;-75
2021/07/10 00:59:33;;;;;;;5.40;5.00;;;15.20;1.00;;;;;;5094128;27;20446;-76
2021/07/10 01:02:00;;;;;;;5.13;4.73;;;15.20;1.00;;;;;;5089021;27;20560;-77
2021/07/10 01:04:27;;;;;;;5.70;5.20;;;15.30;1.00;;;;;;5091874;27;21092;-77
2021/07/10 01:06:53;;;;;;;5.33;4.93;;;15.30;1.00;;;;;;5097611;27;20453;-77
2021/07/10 01:09:20;;;;;;;5.20;4.80;;;15.30;1.00;;;;;;5097057;27;21267;-77
2021/07/10 01:11:47;;;;;;;5.57;5.17;;;15.30;1.00;;;;;;5094982;27;20462;-77
2021/07/10 01:14:14;;;;;;;5.23;4.73;;;15.30;1.00;;;;;;5095709;27;20403;-77
2021/07/10 01:16:42;;;;;;;4.97;4.57;;;15.30;1.00;;;;;;5099117;27;20652;-78
2021/07/10 01:19:09;;;;;;;5.83;5.37;;;15.30;1.00;;;;;;5103409;27;20425;-78
2021/07/10 01:21:37;;;;;;;6.00;5.50;;;15.30;1.00;;;;;;5102170;27;20437;-78
2021/07/10 01:24:04;;;;;;;6.00;5.50;;;15.30;1.00;;;;;;5118038;27;20461;-77
2021/07/10 01:26:30;;;;;;;5.83;5.33;;;15.30;1.00;;;;;;5117311;27;20463;-78
2021/07/10 01:28:57;;;;;;;5.83;5.33;;;15.30;1.00;;;;;;5123133;27;20408;-75
2021/07/10 01:31:24;;;;;;;6.33;5.83;;;15.30;1.00;;;;;;5134158;27;20450;-78
2021/07/10 01:33:51;;;;;;;7.10;6.40;;;15.30;1.00;;;;;;5128123;27;20462;-78
2021/07/10 01:36:18;;;;;;;6.73;6.13;;;15.30;1.00;;;;;;5129418;27;20418;-77
2021/07/10 01:38:46;;;;;;;7.00;6.40;;;15.30;1.00;;;;;;5130455;27;20424;-77
2021/07/10 01:41:12;;;;;;;7.30;6.60;;;15.20;1.00;;;;;;5130764;27;20419;-77
2021/07/10 01:43:39;;;;;;;8.03;7.33;;;15.20;1.00;;;;;;5130880;27;20573;-76
2021/07/10 01:46:05;;;;;;;7.40;6.80;;;15.30;1.00;;;;;;5129993;27;20697;-77
2021/07/10 01:48:32;;;;;;;7.63;7.03;;;15.30;1.00;;;;;;5129735;27;20405;-77
2021/07/10 01:50:59;;;;;;;9.10;8.27;;;15.30;1.00;;;;;;5128633;27;20409;-77
2021/07/10 01:53:25;;;;;;;8.83;8.03;;;15.30;1.00;;;;;;5131335;27;20406;-77
2021/07/10 01:55:53;;;;;;;9.67;8.63;;;15.30;1.00;;;;;;5129547;27;20421;-77
2021/07/10 01:58:20;;;;;;;9.03;8.23;;;15.30;1.00;;;;;;5127817;27;20437;-77
2021/07/10 02:00:47;;;;;;;10.20;9.37;;;15.30;1.00;;;;;;5129929;27;20443;-77
2021/07/10 02:03:14;;;;;;;9.43;8.63;;;15.30;1.00;;;;;;5127588;27;20798;-77
2021/07/10 02:05:41;;;;;;;9.50;8.70;;;15.30;1.00;;;;;;5130606;27;20429;-77
2021/07/10 02:08:09;;;;;;;10.40;9.40;;;15.30;1.00;;;;;;5128364;27;20408;-76
2021/07/10 02:10:36;;;;;;;10.43;9.43;;;15.30;1.00;;;;;;5127429;27;20432;-76
2021/07/10 02:13:07;;;;;;;10.83;9.73;;;15.40;1.00;;;;;;5132747;27;20392;-76
2021/07/10 02:15:34;;;;;;;9.70;8.80;;;15.40;1.00;;;;;;5127072;27;20457;-76
2021/07/10 02:18:02;;;;;;;10.70;9.60;;;15.40;1.00;;;;;;5128717;27;20418;-76
2021/07/10 02:20:29;;;;;;;10.70;9.83;;;15.40;1.00;;;;;;5129753;27;20403;-77
2021/07/10 02:22:56;;;;;;;10.03;9.23;;;15.40;1.00;;;;;;5126101;27;20429;-78
2021/07/10 02:25:24;;;;;;;11.80;10.90;;;15.40;1.00;;;;;;5128370;27;20450;-77
2021/07/10 02:27:52;;;;;;;12.23;11.03;;;15.40;1.00;;;;;;5126035;27;20425;-77
2021/07/10 02:30:22;;;;;;;11.43;10.33;;;15.50;1.00;;;;;;5127750;27;20406;-77
2021/07/10 02:32:49;;;;;;;11.70;10.70;;;15.50;1.00;;;;;;5129281;27;20395;-77
2021/07/10 02:35:17;;;;;;;11.43;10.33;;;15.50;1.00;;;;;;5108954;27;21297;-77
2021/07/10 02:37:45;;;;;;;12.97;11.77;;;15.50;1.00;;;;;;5097740;27;20549;-77
2021/07/10 02:40:14;;;;;;;12.30;10.93;;;15.50;1.00;;;;;;5095722;27;20430;-77
2021/07/10 02:42:44;;;;;;;13.40;12.10;;;15.60;1.00;;;;;;5095825;27;20466;-77
2021/07/10 02:45:13;;;;;;;13.07;11.87;;;15.60;1.00;;;;;;5096238;27;21039;-78
2021/07/10 02:47:43;;;;;;;13.07;11.97;;;15.60;1.00;;;;;;5097101;27;20520;-77
2021/07/10 02:50:12;;;;;;;14.47;13.07;;;15.70;1.00;;;;;;5095292;27;20460;-78
2021/07/10 02:52:39;;;;;;;13.87;12.67;;;15.70;1.00;;;;;;5095530;27;20463;-76
2021/07/10 02:55:07;;;;;;;13.33;12.10;;;15.80;1.00;;;;;;5097563;27;20451;-78
2021/07/10 02:57:33;;;;;;;14.00;12.70;;;15.80;1.00;;;;;;5103040;27;20473;-76
2021/07/10 03:00:01;;;;;;;13.47;12.07;;;15.80;1.00;;;;;;5094744;27;20984;-77
2021/07/10 03:02:28;;;;;;;15.43;14.03;;;15.80;1.00;;;;;;5092748;27;20498;-77
2021/07/10 03:04:55;;;;;;;14.17;12.87;;;15.80;1.00;;;;;;5090909;27;20544;-77
2021/07/10 03:07:22;;;;;;;14.10;12.80;;;15.90;1.00;;;;;;5089988;27;20447;-77
2021/07/10 03:09:49;;;;;;;14.50;13.03;;;15.90;1.00;;;;;;5096046;27;20450;-79
2021/07/10 03:12:15;;;;;;;14.83;13.47;;;15.90;1.00;;;;;;5093496;27;21697;-78
2021/07/10 03:14:42;;;;;;;14.50;13.30;;;15.90;1.00;;;;;;5093444;27;20474;-78
2021/07/10 03:17:08;;;;;;;14.27;12.97;;;15.90;1.00;;;;;;5096021;27;20439;-78
2021/07/10 03:19:35;;;;;;;15.00;13.67;;;15.90;1.00;;;;;;5093207;27;20470;-78
2021/07/10 03:22:04;;;;;;;14.67;13.27;;;16.00;1.00;;;;;;5092701;27;20443;-78
2021/07/10 03:24:30;;;;;;;15.90;14.60;;;16.00;1.00;;;;;;5109049;27;21207;-78
2021/07/10 03:26:57;;;;;;;15.07;13.67;;;16.00;1.00;;;;;;5096301;27;20441;-78
2021/07/10 03:29:23;;;;;;;14.33;13.03;;;16.00;1.00;;;;;;5093020;27;20511;-79
2021/07/10 03:31:51;;;;;;;14.57;13.03;;;16.00;1.00;;;;;;5089563;27;20463;-78
2021/07/10 03:34:17;;;;;;;13.63;12.43;;;16.00;1.00;;;;;;5094454;27;20458;-78
2021/07/10 03:36:44;;;;;;;14.97;13.50;;;16.00;1.00;;;;;;5094867;27;21282;-79
2021/07/10 03:39:12;;;;;;;17.03;14.80;;;16.00;1.00;;;;;;5092051;27;20451;-76
2021/07/10 03:41:39;;;;;;;14.47;13.07;;;16.10;1.00;;;;;;5091447;27;20458;-78
2021/07/10 03:44:06;;;;;;;14.87;13.10;;;16.10;1.00;;;;;;5096447;27;20463;-78
2021/07/10 03:46:33;;;;;;;15.27;13.87;;;16.10;1.00;;;;;;5099958;27;21145;-78
2021/07/10 03:48:59;;;;;;;14.90;13.60;;;16.10;1.00;;;;;;5096595;27;21016;-78
2021/07/10 03:51:27;;;;;;;14.83;13.53;;;16.10;1.00;;;;;;5092816;27;20442;-78
2021/07/10 03:53:53;;;;;;;13.67;12.37;;;16.20;1.00;;;;;;5096012;27;20462;-78
2021/07/10 03:56:21;;;;;;;14.70;13.40;;;16.20;1.00;;;;;;5096154;27;20444;-78
2021/07/10 03:58:48;;;;;;;14.13;12.83;;;16.20;1.00;;;;;;5093833;27;20472;-78
2021/07/10 04:01:15;;;;;;;14.33;13.13;;;16.20;1.00;;;;;;5091196;27;20457;-78
2021/07/10 04:03:41;;;;;;;13.60;12.40;;;16.30;1.00;;;;;;5094040;27;20444;-78
2021/07/10 04:06:08;;;;;;;13.33;12.00;;;16.30;1.00;;;;;;5096382;27;20409;-78
2021/07/10 04:08:34;;;;;;;14.50;13.17;;;16.30;1.00;;;;;;5097470;27;20625;-77
2021/07/10 04:11:01;;;;;;;15.17;13.73;;;16.20;1.00;;;;;;5095671;27;20451;-78
2021/07/10 04:13:29;;;;;;;15.73;14.20;;;16.20;1.00;;;;;;5095539;27;20461;-78
2021/07/10 04:15:57;;;;;;;14.53;13.23;;;16.20;1.00;;;;;;5093298;27;20436;-77
2021/07/10 04:18:23;;;;;;;15.73;14.23;;;16.20;1.00;;;;;;5103842;27;20486;-78
2021/07/10 04:20:50;;;;;;;15.17;13.70;;;16.20;1.00;;;;;;5104407;27;20447;-78
2021/07/10 04:23:16;;;;;;;16.07;14.33;;;16.20;1.00;;;;;;5095452;27;20802;-77
2021/07/10 04:25:43;;;;;;;15.90;14.30;;;16.10;1.00;;;;;;5091566;27;20444;-77
2021/07/10 04:28:10;;;;;;;16.37;14.87;;;16.10;1.00;;;;;;5093006;27;20448;-77
2021/07/10 04:30:39;;;;;;;18.13;16.50;;;16.10;1.00;;;;;;5095245;27;20462;-77
2021/07/10 04:33:06;;;;;;;18.40;16.70;;;16.10;1.00;;;;;;5092450;27;21113;-78
2021/07/10 04:35:33;;;;;;;18.33;16.53;;;16.10;1.00;;;;;;5090201;27;20480;-77
2021/07/10 04:37:59;;;;;;;18.40;16.63;;;16.10;1.00;;;;;;5090507;27;20470;-78
2021/07/10 04:40:26;;;;;;;17.80;16.00;;;16.10;1.00;;;;;;5098712;27;20548;-77
2021/07/10 04:42:53;;;;;;;18.33;16.53;;;16.00;1.00;;;;;;5099865;27;20465;-77
2021/07/10 04:45:19;;;;;;;18.10;16.50;;;16.00;1.00;;;;;;5095880;27;21268;-77
2021/07/10 04:47:47;;;;;;;17.47;15.67;;;16.00;1.00;;;;;;5094860;27;21573;-76
2021/07/10 04:50:15;;;;;;;18.33;16.53;;;16.00;1.00;;;;;;5093971;27;20434;-77
2021/07/10 04:52:42;;;;;;;19.20;16.30;;;16.00;1.00;;;;;;5099065;27;20553;-77
2021/07/10 04:55:10;;;;;;;18.40;16.60;;;15.90;1.00;;;;;;5097393;27;23876;-77
2021/07/10 04:57:38;;;;;;;18.03;16.13;;;15.90;1.00;;;;;;5093665;27;20454;-78
2021/07/10 05:00:06;;;;;;;17.03;15.27;;;15.90;1.00;;;;;;5093429;27;20443;-78
2021/07/10 05:02:33;;;;;;;16.90;15.17;;;16.00;1.00;;;;;;5097587;27;20492;-77
2021/07/10 05:05:01;;;;;;;18.30;15.37;;;16.00;1.00;;;;;;5097551;27;21031;-78
2021/07/10 05:07:27;;;;;;;19.47;16.00;;;16.00;1.00;;;;;;5098067;27;20443;-78
2021/07/10 05:09:54;;;;;;;16.20;14.70;;;16.00;1.00;;;;;;5091969;27;20447;-78
2021/07/10 05:12:22;;;;;;;19.37;15.93;;;16.00;1.00;;;;;;5097670;27;20474;-77
2021/07/10 05:14:50;;;;;;;16.03;14.33;;;16.00;1.00;;;;;;5097439;27;20422;-78
2021/07/10 05:17:17;;;;;;;15.50;14.10;;;16.00;1.00;;;;;;5097373;27;21049;-78
2021/07/10 05:19:44;;;;;;;16.73;15.13;;;16.00;1.00;;;;;;5097986;27;20455;-77
2021/07/10 05:22:12;;;;;;;15.60;14.00;;;16.00;1.00;;;;;;5098022;27;20470;-77
2021/07/10 05:24:38;;;;;;;16.30;14.70;;;16.00;1.00;;;;;;5097846;27;20738;-78
2021/07/10 05:27:06;;;;;;;17.30;15.70;;;16.00;1.00;;;;;;5098468;27;20488;-77
2021/07/10 05:29:33;;;;;;;17.37;15.70;;;16.00;1.00;;;;;;5095915;27;20447;-78
2021/07/10 05:31:59;;;;;;;17.67;15.77;;;16.10;1.00;;;;;;5103066;27;20465;-78
2021/07/10 05:34:27;;;;;;;17.47;14.87;;;16.10;1.00;;;;;;5096042;27;21015;-77
2021/07/10 05:36:54;;;;;;;14.63;13.23;;;16.10;1.00;;;;;;5094422;27;20468;-77
2021/07/10 05:39:22;;;;;;;16.10;14.40;;;16.10;1.00;;;;;;5094115;27;20447;-77
2021/07/10 05:41:49;;;;;;;17.93;16.13;;;16.00;1.00;;;;;;5089281;27;20936;-77
2021/07/10 05:44:16;;;;;;;15.40;13.90;;;16.10;1.00;;;;;;5093468;27;21091;-78
2021/07/10 05:46:42;;;;;;;14.90;13.40;;;16.10;1.00;;;;;;5096534;27;20451;-78
2021/07/10 05:49:09;;;;;;;17.00;15.40;;;16.20;1.00;;;;;;5095101;27;20458;-76
2021/07/10 05:51:36;;;;;;;15.60;14.03;;;16.10;1.00;;;;;;5093973;27;20461;-74
2021/07/10 05:54:02;;;;;;;16.47;14.77;;;16.10;1.00;;;;;;5093326;27;20434;-76
2021/07/10 05:56:30;;;;;;;16.67;13.93;;;16.10;1.00;;;;;;5095422;27;20444;-76
2021/07/10 05:58:57;;;;;;;17.90;14.30;;;16.20;1.00;;;;;;5098474;27;20446;-76
2021/07/10 06:01:23;;;;;;;15.13;13.63;;;16.20;1.00;;;;;;5098698;27;21235;-76
2021/07/10 06:03:50;;;;;;;13.73;12.30;;;16.20;1.00;;;;;;5092146;27;20442;-76
2021/07/10 06:06:17;;;;;;;14.47;13.17;;;16.30;1.00;;;;;;5098756;27;20447;-75
2021/07/10 06:08:43;;;;;;;14.23;12.83;;;16.40;1.00;;;;;;5096390;27;20463;-75
2021/07/10 06:11:10;;;;;;;15.20;13.70;;;16.50;1.00;;;;;;5093261;27;20451;-75
2021/07/10 06:13:38;;;;;;;14.97;13.47;;;16.70;1.00;;;;;;5097177;27;20443;-76
2021/07/10 06:16:05;;;;;;;13.80;12.50;;;16.80;1.00;;;;;;5104268;27;20498;-76
2021/07/10 06:18:32;;;;;;;13.20;11.80;;;16.90;1.00;;;;;;5097745;27;20836;-75
2021/07/10 06:20:59;;;;;;;13.40;12.10;;;17.00;1.00;;;;;;5098882;27;20476;-75
2021/07/10 06:23:25;;;;;;;13.07;11.93;;;17.10;1.00;;;;;;5097221;27;20464;-75
2021/07/10 06:25:52;;;;;;;12.97;11.73;;;17.20;1.00;;;;;;5094843;27;20440;-75
2021/07/10 06:28:18;;;;;;;13.97;12.57;;;17.30;1.00;;;;;;5098184;27;20454;-75
2021/07/10 06:30:46;;;;;;;14.00;12.20;;;17.40;1.00;;;;;;5093708;27;20458;-75
2021/07/10 06:33:13;;;;;;;13.50;12.20;;;17.50;1.00;;;;;;5097454;27;20997;-75
2021/07/10 06:35:40;;;;;;;16.43;14.77;;;17.40;1.00;;;;;;5093120;27;20468;-75
2021/07/10 06:38:06;;;;;;;12.57;11.47;;;17.60;1.00;;;;;;5094573;27;20967;-75
2021/07/10 06:40:34;;;;;;;13.00;11.80;;;17.60;1.00;;;;;;5093728;27;20468;-75
2021/07/10 06:43:01;;;;;;;13.20;11.90;;;17.70;1.00;;;;;;5097171;27;20464;-75
2021/07/10 06:45:27;;;;;;;13.60;12.33;;;17.80;1.00;;;;;;5095146;27;20446;-75
2021/07/10 06:48:01;;;;;;;13.57;12.17;;;17.80;1.00;;;;;;5095667;27;20443;-75
2021/07/10 06:50:28;;;;;;;14.20;11.83;;;17.90;1.00;;;;;;5094724;27;20500;-75
2021/07/10 06:52:55;;;;;;;12.63;11.43;;;18.00;1.00;;;;;;5093264;27;20955;-75
2021/07/10 06:55:21;;;;;;;12.60;11.40;;;18.10;1.00;;;;;;5094780;27;20437;-75
2021/07/10 06:57:48;;;;;;;12.60;11.50;;;18.20;1.00;;;;;;5097163;27;20533;-75
2021/07/10 07:00:17;;;;;;;12.13;11.03;;;18.40;1.00;;;;;;5093810;27;20607;-75
2021/07/10 07:02:44;;;;;;;13.20;11.83;;;18.50;1.00;;;;;;5093692;27;20448;-75
2021/07/10 07:05:13;;;;;;;12.73;11.40;;;18.60;1.00;;;;;;5097068;27;20442;-75
2021/07/10 07:07:40;;;;;;;12.10;11.10;;;18.60;1.00;;;;;;5096733;27;20571;-75
2021/07/10 07:10:08;;;;;;;12.03;10.80;;;18.60;1.00;;;;;;5094269;27;20452;-76
2021/07/10 07:12:35;;;;;;;10.10;9.20;;;18.60;1.00;;;;;;5094671;27;21017;-76
2021/07/10 07:15:02;;;;;;;11.93;10.77;;;18.50;1.00;;;;;;5099192;27;20458;-75
2021/07/10 07:17:29;;;;;;;12.47;11.03;;;18.60;1.00;;;;;;5105672;27;20432;-75
2021/07/10 07:19:55;;;;;;;12.10;11.00;;;18.50;1.00;;;;;;5098968;27;20456;-75
2021/07/10 07:22:23;;;;;;;11.43;10.40;;;18.60;1.00;;;;;;5099106;27;20438;-75
2021/07/10 07:24:50;;;;;;;12.40;11.30;;;18.50;1.00;;;;;;5097109;27;21064;-75
2021/07/10 07:27:16;;;;;;;11.60;10.60;;;18.40;1.00;;;;;;5095290;27;20453;-75
2021/07/10 07:29:43;;;;;;;11.40;10.40;;;18.30;1.00;;;;;;5096041;27;20457;-75
2021/07/10 07:32:10;;;;;;;12.07;10.40;;;18.40;1.00;;;;;;5098342;27;20448;-75
2021/07/10 07:34:37;;;;;;;11.20;10.20;;;18.50;1.00;;;;;;5096887;27;20430;-76
2021/07/10 07:37:04;;;;;;;11.47;10.57;;;18.60;1.00;;;;;;5103869;27;20457;-76
2021/07/10 07:39:33;;;;;;;11.17;10.13;;;18.50;1.00;;;;;;5106408;27;20471;-76
2021/07/10 07:42:00;;;;;;;10.10;9.30;;;18.60;1.00;;;;;;5098801;27;20444;-76
2021/07/10 07:44:27;;;;;;;11.07;9.87;;;18.70;1.00;;;;;;5098091;27;20457;-76
2021/07/10 07:46:53;;;;;;;10.23;9.30;;;18.90;1.00;;;;;;5097332;27;20468;-78
2021/07/10 07:49:20;;;;;;;11.77;10.77;;;19.00;1.00;;;;;;5096345;27;20508;-78
2021/07/10 07:51:47;;;;;;;11.17;10.20;;;19.10;1.00;;;;;;5094263;27;20427;-78
2021/07/10 07:54:13;;;;;;;10.10;9.20;;;19.30;1.00;;;;;;5095088;27;20677;-78
2021/07/10 07:56:41;;;;;;;10.07;9.10;;;19.40;1.00;;;;;;5096751;27;20446;-77
2021/07/10 07:59:09;;;;;;;11.37;9.00;;;19.50;1.00;;;;;;5098776;27;20422;-78
2021/07/10 08:01:35;;;;;;;10.33;9.23;;;19.70;1.00;;;;;;5096283;27;20639;-78
2021/07/10 08:04:02;;;;;;;8.93;8.13;;;19.70;1.00;;;;;;5094807;27;23304;-78
2021/07/10 08:06:30;;;;;;;9.97;9.07;;;19.70;1.00;;;;;;5094638;27;20480;-77
2021/07/10 08:08:56;;;;;;;8.77;8.07;;;19.70;1.00;;;;;;5093613;27;20651;-78
2021/07/10 08:11:23;;;;;;;8.73;8.00;;;19.60;1.00;;;;;;5094591;27;20437;-78
2021/07/10 08:13:51;;;;;;;9.53;8.53;;;19.70;1.00;;;;;;5088195;27;20822;-78
2021/07/10 08:16:17;;;;;;;8.80;8.00;;;19.70;1.00;;;;;;5095265;27;20458;-77
2021/07/10 08:18:44;;;;;;;8.67;7.83;;;19.70;1.00;;;;;;5100112;27;20449;-78
2021/07/10 08:21:13;;;;;;;8.00;7.20;;;19.60;1.00;;;;;;5094890;27;20450;-78
2021/07/10 08:23:39;;;;;;;8.07;7.47;;;19.60;1.00;;;;;;5092163;27;20578;-77
2021/07/10 08:26:06;;;;;;;9.53;8.67;;;19.70;1.00;;;;;;5094562;27;20441;-78
2021/07/10 08:28:33;;;;;;;8.67;7.87;;;19.70;1.00;;;;;;5103172;27;20430;-78
2021/07/10 08:31:02;;;;;;;7.83;7.03;;;19.80;1.00;;;;;;5100458;27;20430;-77
2021/07/10 08:33:29;;;;;;;6.87;6.20;;;19.90;1.00;;;;;;5114863;27;20453;-76
2021/07/10 08:35:56;;;;;;;7.90;7.30;;;19.90;1.00;;;;;;5101966;27;20967;-78
2021/07/10 08:38:23;;;;;;;7.83;7.13;;;20.00;1.00;;;;;;5107374;27;20454;-77
2021/07/10 08:40:51;;;;;;;8.30;7.50;;;20.30;1.00;;;;;;5103748;27;21279;-78
2021/07/10 08:43:18;;;;;;;8.20;7.50;;;20.40;1.00;;;;;;5103807;27;20473;-77
2021/07/10 08:45:47;;;;;;;8.00;7.40;;;20.40;1.00;;;;;;5097351;27;20557;-78
2021/07/10 08:48:15;;;;;;;7.80;7.10;;;20.40;1.00;;;;;;5099632;27;20561;-77
2021/07/10 08:50:42;;;;;;;7.33;6.43;;;20.50;1.00;;;;;;5095440;27;20452;-79
2021/07/10 08:53:09;;;;;;;7.23;6.63;;;20.50;1.00;;;;;;5093146;27;20461;-79
2021/07/10 08:55:36;;;;;;;7.63;6.37;;;20.50;1.00;;;;;;5097467;27;20437;-78
2021/07/10 08:58:04;;;;;;;8.37;7.57;;;20.70;1.00;;;;;;5095812;27;20437;-80
2021/07/10 09:00:33;;;;;;;10.00;6.83;;;20.80;1.00;;;;;;5099049;27;20475;-77
2021/07/10 09:03:00;;;;;;;7.60;7.00;;;20.90;1.00;;;;;;5097551;27;20466;-77
2021/07/10 09:05:29;;;;;;;8.10;7.30;;;21.00;1.00;;;;;;5098898;27;20448;-77
2021/07/10 09:08:22;;;;;;;7.70;7.10;;;21.00;1.00;;;;;;5095485;27;21644;-78
2021/07/10 09:10:58;;;;;;;9.17;8.03;;;21.20;1.00;;;;;;5093974;27;20991;-77
2021/07/10 09:13:35;;;;;;;8.33;7.60;;;21.50;1.00;;;;;;5093808;27;20467;-77
2021/07/10 09:16:05;;;;;;;9.40;8.50;;;21.80;1.00;;;;;;5093960;27;20451;-77
2021/07/10 09:18:44;;;;;;;8.60;7.90;;;21.90;1.00;;;;;;5096028;27;20456;-76
2021/07/10 09:21:14;;;;;;;8.80;8.00;;;22.00;1.00;;;;;;5094846;27;20463;-77
2021/07/10 09:23:44;;;;;;;7.87;7.17;;;22.10;1.00;;;;;;5091083;27;20507;-77
2021/07/10 09:26:23;;;;;;;9.80;7.60;;;22.30;1.00;;;;;;5096006;27;20452;-78
2021/07/10 09:28:59;;;;;;;8.10;7.40;;;22.40;1.00;;;;;;5096612;27;20433;-77
2021/07/10 09:31:28;;;;;;;9.23;8.50;;;22.40;1.00;;;;;;5099100;27;20432;-77
2021/07/10 09:33:59;;;;;;;8.43;7.73;;;22.60;1.00;;;;;;5107451;27;20435;-78
2021/07/10 09:36:28;;;;;;;9.20;7.90;;;22.60;1.00;;;;;;5100137;27;20440;-78
2021/07/10 09:38:54;;;;;;;8.80;7.93;;;22.90;1.00;;;;;;5095456;27;20531;-78
2021/07/10 09:41:27;;;;;;;10.17;9.20;;;23.50;1.00;;;;;;5094876;27;20441;-77
2021/07/10 09:44:03;;;;;;;8.77;8.07;;;23.70;1.00;;;;;;5095788;27;20461;-78
2021/07/10 09:46:30;;;;;;;8.33;7.63;;;23.70;1.00;;;;;;5096928;27;20459;-77
2021/07/10 09:48:56;;;;;;;9.23;8.43;;;24.60;1.00;;;;;;5096085;27;20478;-78
2021/07/10 09:51:25;;;;;;;8.53;7.83;;;26.10;1.00;;;;;;5098039;27;20442;-78
2021/07/10 09:54:01;;;;;;;9.40;8.43;;;26.50;1.00;;;;;;5097198;27;20440;-77
2021/07/10 09:56:27;;;;;;;8.40;7.60;;;26.40;1.00;;;;;;5099920;27;20431;-76
2021/07/10 09:58:54;;;;;;;7.80;7.10;;;26.80;1.00;;;;;;5096025;27;20453;-76
2021/07/10 10:01:35;;;;;;;9.47;7.77;;;27.20;1.00;;;;;;5101286;27;20446;-77
2021/07/10 10:04:19;;;;;;;8.93;8.07;;;27.50;1.00;;;;;;5096287;27;20442;-77
2021/07/10 10:06:46;;;;;;;8.73;7.93;;;26.90;1.00;;;;;;5101558;27;20458;-75
2021/07/10 10:09:19;;;;;;;7.30;6.70;;;26.70;1.00;;;;;;5096036;27;20448;-77
2021/07/10 10:11:55;;;;;;;7.63;6.93;;;27.40;1.00;;;;;;5099060;27;20472;-79
2021/07/10 10:14:22;;;;;;;7.60;7.10;;;28.10;1.00;;;;;;5099133;27;20540;-77
2021/07/10 10:16:49;;;;;;;8.10;7.50;;;27.90;1.00;;;;;;5110050;27;20934;-77
2021/07/10 10:19:17;;;;;;;8.40;7.70;;;27.10;1.00;;;;;;5114054;27;20423;-77
2021/07/10 10:21:46;;;;;;;7.40;6.80;;;27.00;1.00;;;;;;5098592;27;20522;-78
2021/07/10 10:24:14;;;;;;;6.70;6.20;;;28.00;1.00;;;;;;5103498;27;21185;-78
2021/07/10 10:26:42;;;;;;;8.10;6.87;;;28.40;1.00;;;;;;5098510;27;21874;-78
2021/07/10 10:29:12;;;;;;;8.00;7.30;;;28.80;1.00;;;;;;5101537;27;20457;-78
2021/07/10 10:31:40;;;;;;;7.03;6.43;;;29.00;1.00;;;;;;5100999;27;20463;-78
2021/07/10 10:34:07;;;;;;;6.90;6.40;;;29.70;1.00;;;;;;5101214;27;20497;-80
2021/07/10 10:36:35;;;;;;;6.50;6.00;;;29.80;1.00;;;;;;5095307;27;20480;-79
2021/07/10 10:39:05;;;;;;;6.00;5.50;;;30.10;1.00;;;;;;5099300;27;20456;-79
2021/07/10 10:41:33;;;;;;;6.33;5.83;;;30.20;1.00;;;;;;5107446;27;20436;-80
2021/07/10 10:44:01;;;;;;;6.20;5.60;;;31.00;1.00;;;;;;5103743;27;21327;-80
2021/07/10 10:46:28;;;;;;;5.67;5.17;;;31.50;1.00;;;;;;5102582;27;20987;-82
2021/07/10 10:48:54;;;;;;;5.40;4.90;;;32.30;1.00;;;;;;5100419;27;20449;-79
2021/07/10 10:51:30;;;;;;;5.90;4.93;;;32.30;1.00;;;;;;5099989;27;20445;-78
2021/07/10 10:54:24;;;;;;;5.80;5.33;;;32.60;1.00;;;;;;5097142;27;21444;-78
2021/07/10 10:56:51;;;;;;;5.43;4.93;;;32.30;1.00;;;;;;5103578;27;20464;-79
2021/07/10 10:59:40;;;;;;;5.03;4.63;;;32.70;1.00;;;;;;5095818;27;20444;-78
2021/07/10 11:02:50;;;;;;;6.70;6.10;;;32.40;1.00;;;;;;5099593;27;20447;-78
2021/07/10 11:05:44;;;;;;;6.03;5.40;;;32.90;1.00;;;;;;5096759;27;21219;-79
2021/07/10 11:08:52;;;;;;;5.80;5.30;;;33.50;1.00;;;;;;5098366;27;23592;-79
2021/07/10 11:11:37;;;;;;;5.60;5.10;;;33.50;1.00;;;;;;5100693;27;20460;-79
2021/07/10 11:14:11;;;;;;;5.93;5.47;;;33.50;1.00;;;;;;5094252;27;20443;-78
2021/07/10 11:17:09;;;;;;;6.13;5.60;;;33.40;1.00;;;;;;5101527;27;20420;-78
2021/07/10 11:19:53;;;;;;;5.53;5.13;;;33.30;1.00;;;;;;5097694;27;20503;-79
2021/07/10 11:22:57;;;;;;;5.17;4.77;;;33.40;1.00;;;;;;5090992;27;20503;-78
2021/07/10 11:26:01;;;;;;;6.30;5.90;;;34.00;1.00;;;;;;5096961;27;20433;-79
2021/07/10 11:28:30;;;;;;;5.50;5.00;;;33.40;1.00;;;;;;5096501;27;20457;-79
2021/07/10 11:30:58;;;;;;;6.00;5.50;;;33.60;1.00;;;;;;5108966;27;20426;-78
2021/07/10 11:34:00;;;;;;;6.10;5.60;;;34.30;1.00;;;;;;5093391;27;20488;-78
2021/07/10 11:36:44;;;;;;;4.93;4.63;;;35.20;1.00;;;;;;5096179;27;20506;-78
2021/07/10 11:39:38;;;;;;;4.30;3.90;;;35.50;1.00;;;;;;5098338;27;20454;-78
2021/07/10 11:42:41;;;;;;;5.23;4.80;;;36.30;1.00;;;;;;5100407;27;20402;-83
2021/07/10 11:45:26;;;;;;;5.60;5.20;;;36.60;1.00;;;;;;5098926;27;20445;-82
2021/07/10 11:47:55;;;;;;;5.27;4.80;;;36.80;1.00;;;;;;5117141;27;21484;-79
2021/07/10 11:50:26;;;;;;;5.20;4.80;;;36.70;1.00;;;;;;5098419;27;20579;-79
2021/07/10 11:53:01;;;;;;;5.10;4.70;;;36.40;1.00;;;;;;5102655;27;20442;-79
2021/07/10 11:55:30;;;;;;;5.57;5.00;;;35.20;1.00;;;;;;5102608;27;20453;-81
2021/07/10 11:57:57;;;;;;;5.47;4.97;;;35.60;1.00;;;;;;5113721;27;20401;-80
2021/07/10 12:00:26;;;;;;;6.70;4.67;;;36.10;1.00;;;;;;5106688;27;20948;-80
2021/07/10 12:02:53;;;;;;;4.87;4.57;;;36.30;1.00;;;;;;5109250;27;20490;-80
2021/07/10 12:05:21;;;;;;;5.60;5.13;;;36.10;1.00;;;;;;5110654;27;20520;-82
2021/07/10 12:07:51;;;;;;;5.37;4.87;;;35.80;1.00;;;;;;5118071;27;20402;-82
2021/07/10 12:10:21;;;;;;;4.70;4.40;;;34.70;1.00;;;;;;5111255;27;20472;-82
2021/07/10 12:12:49;;;;;;;5.37;4.87;;;34.40;1.00;;;;;;5109404;27;20450;-83
2021/07/10 12:15:18;;;;;;;5.00;4.60;;;35.10;1.00;;;;;;5107823;27;20449;-80
2021/07/10 12:17:47;;;;;;;4.73;4.37;;;35.20;1.00;;;;;;5112413;27;20499;-82
2021/07/10 12:20:17;;;;;;;5.70;4.47;;;34.90;1.00;;;;;;5108501;27;20476;-82
2021/07/10 12:22:53;;;;;;;5.23;4.80;;;34.40;1.00;;;;;;5109169;27;20869;-81
2021/07/10 12:25:21;;;;;;;5.37;4.90;;;33.90;1.00;;;;;;5109028;27;20543;-80
2021/07/10 12:27:56;;;;;;;5.40;4.47;;;33.10;1.00;;;;;;5112499;27;20418;-82
2021/07/10 12:30:48;;;;;;;5.30;4.77;;;32.50;1.00;;;;;;5108923;27;21394;-80
2021/07/10 12:33:31;;;;;;;6.77;4.50;;;33.90;1.00;;;;;;5110580;27;20465;-80
2021/07/10 12:36:26;;;;;;;5.00;4.60;;;35.10;1.00;;;;;;5114048;27;20476;-82
2021/07/10 12:39:11;;;;;;;4.83;4.43;;;36.10;1.00;;;;;;5105595;27;20421;-80
2021/07/10 12:41:47;;;;;;;4.63;4.23;;;36.20;1.00;;;;;;5115875;27;20453;-82
2021/07/10 12:44:29;;;;;;;5.90;4.80;;;36.10;1.00;;;;;;5112154;27;20484;-80
2021/07/10 12:47:01;;;;;;;4.97;4.53;;;36.80;1.00;;;;;;5107614;27;20459;-80
2021/07/10 12:49:31;;;;;;;4.40;4.00;;;37.10;1.00;;;;;;5111185;27;20492;-79
2021/07/10 12:51:58;;;;;;;4.67;4.27;;;35.80;1.00;;;;;;5109742;27;20458;-81
2021/07/10 12:54:41;;;;;;;8.77;5.03;;;35.40;1.00;;;;;;5108948;27;20765;-80
2021/07/10 12:57:31;;;;;;;4.63;4.27;;;34.60;1.00;;;;;;5108602;27;21015;-81
2021/07/10 13:00:08;;;;;;;5.43;5.10;;;32.80;1.00;;;;;;5110091;27;20426;-81